Time;durP1;ratioP1;P1;durP2;ratioP2;P2;SDS_P1;SDS_P2;PMS_P1;PMS_P2;Temp;Humidity;BMP_temperature;BMP_pressure;BME280_temperature;BME280_humidity;BME280_pressure;Samples;Min_cycle;Max_cycle;Signal;HPM_P1;HPM_P2
2022/12/15 00:38:43;;;;;;;41.40;36.87;;;-3.90;99.90;;;;;;5015551;28;20057;-67
2022/12/15 00:41:10;;;;;;;44.97;37.43;;;-3.90;99.90;;;;;;5022029;28;20377;-66
2022/12/15 00:43:39;;;;;;;35.07;31.13;;;-3.90;99.90;;;;;;5026219;28;20124;-67
2022/12/15 00:48:51;;;;;;;36.07;30.13;;;-3.90;99.90;;;;;;5022890;28;20456;-67
2022/12/15 00:51:17;;;;;;;39.23;33.60;;;-3.90;99.90;;;;;;5004670;28;20526;-67
2022/12/15 01:21:17;;;;;;;40.23;34.90;;;-4.00;99.90;;;;;;5034104;28;20454;-76
2022/12/15 01:23:43;;;;;;;44.13;36.77;;;-4.00;99.90;;;;;;5022976;28;20110;-76
2022/12/15 01:26:09;;;;;;;35.10;30.57;;;-4.00;99.90;;;;;;5024987;28;20407;-77
2022/12/15 01:28:35;;;;;;;32.83;28.97;;;-4.00;99.90;;;;;;5043153;28;20526;-76
2022/12/15 01:31:01;;;;;;;42.10;34.87;;;-4.00;99.90;;;;;;5043507;28;20081;-76
2022/12/15 01:33:26;;;;;;;33.63;29.37;;;-4.00;99.90;;;;;;5032777;28;20438;-75
2022/12/15 01:36:00;;;;;;;41.03;33.60;;;-4.00;99.90;;;;;;5027352;28;20044;-76
2022/12/15 01:38:27;;;;;;;35.97;31.97;;;-4.00;99.90;;;;;;5038502;28;20103;-76
2022/12/15 01:40:58;;;;;;;37.13;32.37;;;-4.00;99.90;;;;;;5041628;28;20037;-76
2022/12/15 01:43:31;;;;;;;38.97;32.63;;;-4.00;99.90;;;;;;5049366;28;20044;-76
2022/12/15 01:46:07;;;;;;;38.40;33.80;;;-4.00;99.90;;;;;;5046113;28;20083;-76
2022/12/15 01:48:41;;;;;;;39.27;33.27;;;-4.00;99.90;;;;;;5049052;28;20101;-76
2022/12/15 01:51:31;;;;;;;41.83;35.77;;;-4.00;99.90;;;;;;5036028;28;20083;-67
2022/12/15 01:54:02;;;;;;;42.80;35.70;;;-4.00;99.90;;;;;;5052105;28;20072;-67
2022/12/15 01:56:32;;;;;;;43.40;35.20;;;-4.00;99.90;;;;;;5023581;28;20127;-76
2022/12/15 01:59:01;;;;;;;42.93;37.83;;;-4.00;99.90;;;;;;5046800;28;20059;-76
2022/12/15 02:01:27;;;;;;;42.60;36.50;;;-4.00;99.90;;;;;;5056756;28;20098;-76
2022/12/15 02:03:53;;;;;;;44.40;36.70;;;-4.00;99.90;;;;;;5047183;28;20056;-76
2022/12/15 02:06:23;;;;;;;43.37;35.03;;;-4.00;99.90;;;;;;5011248;28;20103;-76
2022/12/15 02:08:57;;;;;;;40.40;35.17;;;-4.00;99.90;;;;;;5023068;28;20036;-76
2022/12/15 02:12:01;;;;;;;45.63;37.20;;;-4.00;99.90;;;;;;5051099;28;20052;-76
2022/12/15 02:14:54;;;;;;;39.83;34.10;;;-4.00;99.90;;;;;;5032228;28;20443;-77
2022/12/15 02:17:29;;;;;;;43.13;36.87;;;-3.90;99.90;;;;;;5045886;28;20044;-76
2022/12/15 02:20:16;;;;;;;40.10;35.07;;;-4.00;99.90;;;;;;5046033;28;20048;-76
2022/12/15 02:23:07;;;;;;;42.57;36.60;;;-4.00;99.90;;;;;;5039449;28;20072;-77
2022/12/15 02:25:51;;;;;;;42.07;36.17;;;-3.90;99.90;;;;;;5049827;28;20049;-76
2022/12/15 02:28:20;;;;;;;44.83;37.80;;;-3.90;99.90;;;;;;5037653;28;20053;-76
2022/12/15 02:33:59;;;;;;;43.40;37.07;;;-3.90;99.90;;;;;;5045140;28;20044;-76
2022/12/15 02:36:43;;;;;;;45.30;36.53;;;-4.10;99.90;;;;;;5033815;28;20218;-76
2022/12/15 02:39:13;;;;;;;44.17;37.00;;;-4.00;99.90;;;;;;5019506;28;20052;-76
2022/12/15 02:41:50;;;;;;;45.47;37.40;;;-4.00;99.90;;;;;;5036901;28;20060;-76
2022/12/15 02:44:23;;;;;;;42.37;36.10;;;-3.90;99.90;;;;;;5043545;28;20507;-76
2022/12/15 02:47:08;;;;;;;41.97;36.90;;;-3.90;99.90;;;;;;5038429;28;20044;-76
2022/12/15 02:50:08;;;;;;;43.73;36.57;;;-3.90;99.90;;;;;;5058276;28;20051;-76
2022/12/15 02:53:08;;;;;;;42.70;36.63;;;-3.90;99.90;;;;;;5040180;28;20047;-76
2022/12/15 02:56:01;;;;;;;42.03;36.50;;;-3.90;99.90;;;;;;5022099;28;20158;-76
2022/12/15 02:58:49;;;;;;;44.13;36.53;;;-3.80;99.90;;;;;;5037449;28;20040;-76
2022/12/15 03:01:29;;;;;;;40.13;35.73;;;-3.80;99.90;;;;;;5035914;28;20049;-76
2022/12/15 03:03:56;;;;;;;45.17;36.92;;;-3.80;99.90;;;;;;5013893;28;20773;-76
2022/12/15 03:06:25;;;;;;;44.33;36.97;;;-3.80;99.90;;;;;;5037816;28;20132;-76
2022/12/15 03:08:51;;;;;;;42.80;36.17;;;-3.80;99.90;;;;;;5031129;28;20041;-76
2022/12/15 03:11:17;;;;;;;43.90;36.97;;;-3.80;99.90;;;;;;5026555;28;20041;-76
2022/12/15 03:13:43;;;;;;;44.30;36.80;;;-3.80;99.90;;;;;;5007339;28;20084;-76
2022/12/15 03:16:08;;;;;;;45.30;37.40;;;-3.80;99.90;;;;;;5020466;28;20489;-76
2022/12/15 03:18:34;;;;;;;42.63;36.30;;;-3.70;99.90;;;;;;5029079;28;20053;-76
2022/12/15 03:21:00;;;;;;;41.93;35.43;;;-3.70;99.90;;;;;;5048421;28;20040;-76
2022/12/15 03:23:29;;;;;;;34.73;30.93;;;-3.80;99.90;;;;;;5031002;28;20499;-76
2022/12/15 03:25:54;;;;;;;32.37;28.87;;;-3.80;99.90;;;;;;5044690;28;20350;-76
2022/12/15 03:28:21;;;;;;;33.23;29.63;;;-3.80;99.90;;;;;;5038552;28;20064;-66
2022/12/15 03:30:49;;;;;;;35.83;31.40;;;-3.70;99.90;;;;;;5012321;28;20841;-66
2022/12/15 03:33:15;;;;;;;35.90;31.37;;;-3.80;99.90;;;;;;5019532;28;20266;-67
2022/12/15 03:35:41;;;;;;;39.83;34.77;;;-3.80;99.90;;;;;;5034987;28;20117;-66
2022/12/15 03:38:07;;;;;;;37.63;32.97;;;-3.80;99.90;;;;;;5035794;28;20521;-67
2022/12/15 03:40:33;;;;;;;39.60;33.47;;;-3.80;99.90;;;;;;5028628;28;20090;-67
2022/12/15 03:42:58;;;;;;;34.13;30.40;;;-3.80;99.90;;;;;;5031494;28;20048;-67
2022/12/15 03:45:26;;;;;;;31.57;27.50;;;-3.80;99.90;;;;;;5028311;28;20500;-66
2022/12/15 03:47:53;;;;;;;36.87;32.83;;;-3.80;99.90;;;;;;5031633;28;20094;-67
2022/12/15 03:50:24;;;;;;;37.28;33.22;;;-3.70;99.90;;;;;;5031653;28;20530;-67
2022/12/15 03:52:55;;;;;;;37.30;33.17;;;-3.80;99.90;;;;;;5021839;28;20078;-67
2022/12/15 03:55:21;;;;;;;39.07;32.43;;;-3.80;99.90;;;;;;5006774;28;20110;-67
2022/12/15 03:57:48;;;;;;;38.57;34.33;;;-3.80;99.90;;;;;;5030991;28;20086;-67
2022/12/15 04:00:14;;;;;;;39.20;33.70;;;-3.70;99.90;;;;;;5014624;28;20048;-67
2022/12/15 04:02:44;;;;;;;40.07;34.47;;;-3.70;99.90;;;;;;5039679;28;20127;-67
2022/12/15 04:05:18;;;;;;;32.17;28.77;;;-3.70;99.90;;;;;;5024162;28;20051;-67
2022/12/15 04:07:43;;;;;;;35.00;29.47;;;-3.70;99.90;;;;;;5037818;28;21067;-67
2022/12/15 04:10:11;;;;;;;35.83;31.90;;;-3.70;99.90;;;;;;5038348;28;20037;-67
2022/12/15 04:12:38;;;;;;;36.87;31.20;;;-3.70;99.90;;;;;;5021640;28;20053;-67
2022/12/15 04:15:06;;;;;;;36.60;31.83;;;-3.80;99.90;;;;;;5026491;28;20067;-77
2022/12/15 04:17:31;;;;;;;33.83;30.23;;;-3.70;99.90;;;;;;5038047;28;20048;-76
2022/12/15 04:20:09;;;;;;;37.10;32.90;;;-3.70;99.90;;;;;;5019674;28;20116;-76
2022/12/15 04:22:37;;;;;;;41.03;34.13;;;-3.70;99.90;;;;;;5048731;28;20092;-76
2022/12/15 05:31:57;;;;;;;29.93;26.83;;;-3.50;99.90;;;;;;5045450;28;20048;-77
2022/12/15 05:34:25;;;;;;;31.90;27.97;;;-3.50;99.90;;;;;;5037989;28;20435;-76
2022/12/15 05:36:52;;;;;;;31.17;26.70;;;-3.50;99.90;;;;;;5047030;28;20086;-76
2022/12/15 05:39:19;;;;;;;32.70;27.53;;;-3.50;99.90;;;;;;5039433;28;20499;-77
2022/12/15 05:41:45;;;;;;;27.37;24.37;;;-3.50;99.90;;;;;;5045840;28;20495;-76
2022/12/15 05:44:11;;;;;;;29.17;24.40;;;-3.50;99.90;;;;;;5035692;28;20159;-76
2022/12/15 05:46:37;;;;;;;30.73;25.93;;;-3.50;99.90;;;;;;5027935;28;20188;-76
2022/12/15 05:49:05;;;;;;;29.23;25.80;;;-3.60;99.90;;;;;;5033518;28;20571;-76
2022/12/15 05:51:31;;;;;;;31.00;25.10;;;-3.50;99.90;;;;;;5058510;28;20796;-76
2022/12/15 05:53:57;;;;;;;28.37;25.37;;;-3.50;99.90;;;;;;5040466;28;20650;-76
2022/12/15 05:56:24;;;;;;;27.87;24.70;;;-3.50;99.90;;;;;;5033580;28;20033;-76
2022/12/15 05:58:50;;;;;;;29.47;25.93;;;-3.50;99.90;;;;;;5040652;28;20041;-76
2022/12/15 06:01:17;;;;;;;28.70;25.20;;;-3.50;99.90;;;;;;5018920;28;20047;-76
2022/12/15 06:03:43;;;;;;;28.60;24.73;;;-3.40;99.90;;;;;;5026650;28;20032;-76
2022/12/15 06:06:11;;;;;;;29.00;25.63;;;-3.40;99.90;;;;;;5042613;28;20206;-76
2022/12/15 06:08:38;;;;;;;28.47;25.37;;;-3.40;99.90;;;;;;5010894;28;20491;-76
2022/12/15 06:11:06;;;;;;;31.00;26.60;;;-3.40;99.90;;;;;;5037309;28;20051;-76
2022/12/15 06:13:34;;;;;;;29.07;25.70;;;-3.40;99.90;;;;;;5034279;28;20120;-78
2022/12/15 06:16:11;;;;;;;29.53;24.93;;;-3.30;99.90;;;;;;5038943;28;20055;-76
2022/12/15 06:18:40;;;;;;;32.47;26.47;;;-3.30;99.90;;;;;;5039374;28;20071;-76
2022/12/15 06:21:09;;;;;;;29.07;25.30;;;-3.30;99.90;;;;;;5037566;28;20055;-76
2022/12/15 06:23:35;;;;;;;28.37;24.17;;;-3.20;99.90;;;;;;5031262;28;20049;-76
2022/12/15 06:26:11;;;;;;;26.67;23.23;;;-3.30;99.90;;;;;;5041130;28;20048;-76
2022/12/15 06:28:37;;;;;;;29.70;24.53;;;-3.30;99.90;;;;;;5026943;28;20063;-77
2022/12/15 06:31:05;;;;;;;27.50;24.43;;;-3.30;99.90;;;;;;5036002;28;20457;-76
2022/12/15 06:33:31;;;;;;;28.20;23.90;;;-3.30;99.90;;;;;;5017201;28;20052;-76
2022/12/15 06:36:05;;;;;;;28.27;25.20;;;-3.20;99.90;;;;;;5039295;28;20043;-76
2022/12/15 06:38:31;;;;;;;29.03;24.70;;;-3.20;99.90;;;;;;5017455;28;20048;-67
2022/12/15 06:41:01;;;;;;;26.83;24.07;;;-3.20;99.90;;;;;;5038997;28;20127;-67
2022/12/15 06:43:28;;;;;;;26.85;23.85;;;-3.20;99.90;;;;;;5038884;28;20053;-66
2022/12/15 06:45:55;;;;;;;29.57;25.33;;;-3.20;99.90;;;;;;5033567;28;20041;-67
2022/12/15 06:48:22;;;;;;;29.00;24.47;;;-3.20;99.90;;;;;;5015636;28;20048;-67
2022/12/15 06:50:51;;;;;;;30.03;25.23;;;-3.10;99.90;;;;;;5036125;28;20041;-71
2022/12/15 06:53:19;;;;;;;30.87;26.33;;;-3.10;99.90;;;;;;5044511;28;20048;-71
2022/12/15 06:55:46;;;;;;;29.87;25.67;;;-3.00;99.90;;;;;;4997681;28;20140;-71
2022/12/15 06:58:12;;;;;;;29.97;25.80;;;-2.90;99.90;;;;;;5016625;28;20048;-71
2022/12/15 07:00:40;;;;;;;29.57;25.17;;;-2.90;99.90;;;;;;5029569;28;20044;-71
2022/12/15 07:03:14;;;;;;;27.97;23.67;;;-2.70;99.90;;;;;;5027105;28;20496;-71
2022/12/15 07:05:40;;;;;;;25.97;23.27;;;-2.70;99.90;;;;;;5020540;28;20546;-71
2022/12/15 07:08:06;;;;;;;30.07;24.50;;;-2.60;99.90;;;;;;5021819;28;20048;-73
2022/12/15 07:10:32;;;;;;;27.07;24.13;;;-2.50;99.90;;;;;;5026781;28;20119;-78
2022/12/15 07:12:58;;;;;;;27.83;24.57;;;-2.50;99.90;;;;;;5005315;28;20118;-78
2022/12/15 07:15:26;;;;;;;28.17;23.23;;;-2.50;99.90;;;;;;5029157;28;20547;-78
2022/12/15 07:17:55;;;;;;;26.90;23.43;;;-2.40;99.90;;;;;;5018899;28;20396;-71
2022/12/15 07:20:21;;;;;;;27.80;22.50;;;-2.40;99.90;;;;;;5039787;28;20055;-72
2022/12/15 07:22:50;;;;;;;26.00;22.60;;;-2.40;99.90;;;;;;5003870;28;20045;-71
2022/12/15 07:25:19;;;;;;;25.42;22.73;;;-2.30;99.90;;;;;;5022067;28;20056;-72
2022/12/15 07:27:46;;;;;;;28.10;24.13;;;-2.30;99.90;;;;;;5022983;28;20515;-71
2022/12/15 07:30:12;;;;;;;24.70;21.90;;;-2.30;99.90;;;;;;5039094;28;20079;-71
2022/12/15 07:32:38;;;;;;;26.97;22.80;;;-2.40;99.90;;;;;;5030076;28;20094;-71
2022/12/15 07:35:06;;;;;;;27.10;24.20;;;-2.40;99.90;;;;;;5023597;28;20670;-71
2022/12/15 07:37:35;;;;;;;26.27;23.40;;;-2.40;99.90;;;;;;5005699;28;20580;-71
2022/12/15 07:40:02;;;;;;;26.23;22.97;;;-2.40;99.90;;;;;;5026742;28;20036;-71
2022/12/15 07:42:29;;;;;;;26.60;23.10;;;-2.40;99.90;;;;;;5044054;28;20080;-71
2022/12/15 07:44:55;;;;;;;29.73;24.90;;;-2.50;99.90;;;;;;5038451;28;20044;-72
2022/12/15 07:47:20;;;;;;;27.60;23.50;;;-2.50;99.90;;;;;;5012811;28;20402;-71
2022/12/15 07:49:46;;;;;;;26.07;22.70;;;-2.50;99.90;;;;;;5005891;28;20048;-72
2022/12/15 07:52:12;;;;;;;28.07;22.27;;;-2.60;99.90;;;;;;5021117;28;20040;-72
2022/12/15 07:54:39;;;;;;;26.30;22.33;;;-2.60;99.90;;;;;;5009058;28;20098;-71
2022/12/15 07:57:06;;;;;;;24.60;21.33;;;-2.60;99.90;;;;;;5039916;28;20112;-72
2022/12/15 07:59:33;;;;;;;25.07;22.30;;;-2.50;99.90;;;;;;5038752;28;20539;-71
2022/12/15 08:02:00;;;;;;;24.33;21.73;;;-2.60;99.90;;;;;;5020359;28;20495;-72
2022/12/15 08:04:26;;;;;;;24.57;22.13;;;-2.60;99.90;;;;;;4990961;28;20093;-72
2022/12/15 08:06:56;;;;;;;25.47;22.67;;;-2.60;99.90;;;;;;5043143;28;20091;-72
2022/12/15 08:09:22;;;;;;;28.33;23.00;;;-2.50;99.90;;;;;;5020033;28;20096;-72
2022/12/15 08:11:49;;;;;;;26.00;22.17;;;-2.50;99.90;;;;;;5021924;28;20155;-72
2022/12/15 08:14:15;;;;;;;27.47;24.07;;;-2.60;99.90;;;;;;5023482;28;20080;-71
2022/12/15 08:16:41;;;;;;;28.03;24.83;;;-2.50;99.90;;;;;;5005981;28;20044;-71
2022/12/15 08:19:11;;;;;;;28.43;24.37;;;-2.50;99.90;;;;;;5013567;28;20183;-71
2022/12/15 08:21:39;;;;;;;29.93;26.20;;;-2.40;99.90;;;;;;5023161;28;20045;-72
2022/12/15 08:24:07;;;;;;;28.40;25.10;;;-2.40;99.90;;;;;;5037227;28;20428;-71
2022/12/15 08:26:33;;;;;;;27.40;23.70;;;-2.40;99.90;;;;;;5026306;28;20044;-71
2022/12/15 08:29:04;;;;;;;28.43;24.33;;;-2.40;99.90;;;;;;5043777;28;20046;-80
2022/12/15 08:31:31;;;;;;;26.30;22.63;;;-2.40;99.90;;;;;;5019681;28;20055;-80
2022/12/15 08:33:58;;;;;;;27.77;23.23;;;-2.40;99.90;;;;;;5009487;28;20123;-80
2022/12/15 08:36:24;;;;;;;29.30;24.20;;;-2.40;99.90;;;;;;5040114;28;20044;-80
2022/12/15 08:38:50;;;;;;;27.87;24.17;;;-2.30;99.90;;;;;;5020595;28;20052;-82
2022/12/15 08:41:22;;;;;;;28.43;24.50;;;-2.30;99.90;;;;;;5020161;28;20153;-82
2022/12/15 08:43:49;;;;;;;26.97;23.03;;;-2.30;99.90;;;;;;5026043;28;20056;-82
2022/12/15 08:46:21;;;;;;;26.47;23.60;;;-2.30;99.90;;;;;;5042935;28;20048;-81
2022/12/15 08:48:46;;;;;;;26.57;23.40;;;-2.20;99.90;;;;;;5039278;28;20036;-81
2022/12/15 08:51:13;;;;;;;28.00;24.10;;;-2.20;99.90;;;;;;5039753;28;20048;-81
2022/12/15 08:53:39;;;;;;;29.27;25.10;;;-2.20;99.90;;;;;;5041148;28;20048;-81
2022/12/15 08:56:17;;;;;;;30.30;26.07;;;-2.10;99.90;;;;;;5028362;28;20051;-81
2022/12/15 08:58:43;;;;;;;29.77;26.43;;;-2.00;99.90;;;;;;5023041;28;20060;-82
2022/12/15 09:01:16;;;;;;;31.30;27.47;;;-1.90;99.90;;;;;;5012397;28;20189;-83
2022/12/15 09:03:42;;;;;;;28.13;25.23;;;-1.90;99.90;;;;;;5021381;28;20044;-82
2022/12/15 09:06:13;;;;;;;29.17;26.13;;;-1.80;99.90;;;;;;5018554;28;20511;-81
2022/12/15 09:08:39;;;;;;;30.43;27.17;;;-1.70;99.90;;;;;;5040397;28;20045;-82
2022/12/15 09:11:05;;;;;;;27.97;25.03;;;-1.70;99.90;;;;;;5024097;28;20468;-82
2022/12/15 09:13:31;;;;;;;28.00;24.97;;;-1.70;99.90;;;;;;5004976;28;20040;-82
2022/12/15 09:15:58;;;;;;;28.47;25.50;;;-1.70;99.90;;;;;;5037298;28;20341;-80
2022/12/15 09:18:24;;;;;;;28.30;25.03;;;-1.60;99.90;;;;;;5040007;28;20055;-82
2022/12/15 09:20:50;;;;;;;27.60;24.60;;;-1.50;99.90;;;;;;5005421;28;20045;-80
2022/12/15 09:23:15;;;;;;;26.27;23.47;;;-1.50;99.90;;;;;;5021835;28;20463;-80
2022/12/15 09:25:41;;;;;;;27.60;24.70;;;-1.50;99.90;;;;;;5007500;28;20415;-80
2022/12/15 09:28:07;;;;;;;28.83;25.73;;;-1.40;99.90;;;;;;5012861;28;20475;-80
2022/12/15 09:30:33;;;;;;;30.23;24.77;;;-1.40;99.90;;;;;;5035797;28;20041;-80
2022/12/15 09:32:58;;;;;;;25.97;23.20;;;-1.40;99.90;;;;;;5020950;28;20047;-80
2022/12/15 09:35:27;;;;;;;26.83;24.07;;;-1.30;99.90;;;;;;5007643;28;20052;-80
2022/12/15 09:37:55;;;;;;;26.87;24.20;;;-1.20;99.90;;;;;;5022939;28;20049;-80
2022/12/15 09:40:21;;;;;;;26.30;23.13;;;-1.20;99.90;;;;;;5021875;28;20174;-80
2022/12/15 09:42:52;;;;;;;25.70;22.60;;;-1.20;99.90;;;;;;5025698;28;20209;-81
2022/12/15 09:45:38;;;;;;;25.67;22.87;;;-1.10;99.90;;;;;;5043226;28;20064;-81
2022/12/15 09:48:13;;;;;;;24.70;21.93;;;-1.10;99.90;;;;;;5024499;28;20147;-81
2022/12/15 09:50:42;;;;;;;26.60;23.77;;;-1.10;99.90;;;;;;5027074;28;20101;-81
2022/12/15 09:53:11;;;;;;;25.87;23.03;;;-1.00;99.90;;;;;;5039683;28;20052;-81
2022/12/15 09:55:37;;;;;;;25.23;22.53;;;-1.00;99.90;;;;;;5042648;28;20042;-81
2022/12/15 09:58:17;;;;;;;25.00;22.43;;;-0.90;99.90;;;;;;5024088;28;20084;-81
2022/12/15 10:00:58;;;;;;;24.50;21.98;;;-0.90;99.90;;;;;;5039562;28;20538;-81
2022/12/15 10:04:00;;;;;;;27.37;22.03;;;-0.80;99.90;;;;;;5026096;28;20059;-81
2022/12/15 10:06:39;;;;;;;26.27;22.07;;;-0.70;99.90;;;;;;5025269;28;20045;-81
2022/12/15 10:09:18;;;;;;;24.40;21.87;;;-0.60;99.90;;;;;;5031089;28;20049;-81
2022/12/15 10:12:21;;;;;;;23.23;20.93;;;-0.60;99.90;;;;;;5045249;28;20128;-80
2022/12/15 10:14:56;;;;;;;25.20;21.70;;;-0.60;99.90;;;;;;5030661;28;20071;-81
2022/12/15 10:17:33;;;;;;;23.97;21.13;;;-0.50;99.90;;;;;;5031956;28;20406;-81
2022/12/15 10:20:05;;;;;;;24.83;21.27;;;-0.50;99.90;;;;;;5042823;28;20165;-81
2022/12/15 10:22:36;;;;;;;25.73;22.73;;;-0.50;99.90;;;;;;5033544;28;20041;-81
2022/12/15 10:25:21;;;;;;;24.27;20.33;;;-0.40;99.90;;;;;;5040103;28;20345;-81
2022/12/15 10:27:52;;;;;;;23.83;21.33;;;-0.40;99.90;;;;;;5028352;28;20051;-81
2022/12/15 10:30:18;;;;;;;24.67;21.37;;;-0.30;99.90;;;;;;5040738;28;20066;-82
2022/12/15 10:33:01;;;;;;;23.77;21.27;;;-0.30;99.90;;;;;;5008934;28;20099;-81
2022/12/15 10:35:34;;;;;;;22.47;20.07;;;-0.30;99.90;;;;;;5046339;28;20139;-81
2022/12/15 10:38:02;;;;;;;23.57;20.47;;;-0.20;99.90;;;;;;5040948;28;20132;-81
2022/12/15 10:40:48;;;;;;;24.23;19.87;;;-0.20;99.90;;;;;;5027514;28;20044;-81
2022/12/15 10:43:37;;;;;;;22.27;19.27;;;-0.20;99.90;;;;;;5029156;28;20097;-81
2022/12/15 10:46:25;;;;;;;23.23;18.60;;;-0.20;99.90;;;;;;5021342;28;20060;-81
2022/12/15 10:49:10;;;;;;;23.60;20.83;;;-0.10;99.90;;;;;;5040861;28;20076;-81
2022/12/15 10:51:43;;;;;;;24.47;19.90;;;-0.10;99.90;;;;;;5019645;28;20388;-81
2022/12/15 10:54:12;;;;;;;21.17;18.97;;;0.00;99.90;;;;;;5043628;28;20454;-81
2022/12/15 10:56:51;;;;;;;20.73;18.73;;;0.00;99.90;;;;;;5044974;28;20090;-82
2022/12/15 10:59:31;;;;;;;21.87;19.63;;;0.10;99.90;;;;;;5038684;28;20275;-81
2022/12/15 11:02:16;;;;;;;;;;;0.20;99.90;;;;;;5043110;28;20082;-81
2022/12/15 11:04:56;;;;;;;23.73;18.70;;;0.20;99.90;;;;;;5026322;28;19999;-81
2022/12/15 11:07:22;;;;;;;21.65;19.10;;;0.30;99.90;;;;;;5043005;28;20049;-81
2022/12/15 11:09:48;;;;;;;20.37;18.17;;;0.30;99.90;;;;;;5039672;28;20041;-82
2022/12/15 11:15:30;;;;;;;23.47;18.13;;;0.40;99.90;;;;;;5046807;28;20053;-82
2022/12/15 11:17:56;;;;;;;;;;;0.50;99.90;;;;;;5043010;28;20094;-82
2022/12/15 11:20:27;;;;;;;21.90;16.57;;;0.50;99.90;;;;;;5027236;28;19983;-82
2022/12/15 11:23:29;;;;;;;17.00;15.10;;;0.60;99.90;;;;;;5040442;28;20041;-82
2022/12/15 11:26:04;;;;;;;19.33;16.33;;;0.70;99.90;;;;;;5038142;28;20048;-82
2022/12/15 11:28:43;;;;;;;19.33;16.20;;;0.80;99.90;;;;;;5040806;28;20052;-82
2022/12/15 11:31:24;;;;;;;22.17;16.70;;;0.80;99.90;;;;;;5028062;28;20338;-82
2022/12/15 11:33:54;;;;;;;20.07;17.50;;;0.90;99.90;;;;;;5030135;28;20051;-83
2022/12/15 11:36:53;;;;;;;21.02;18.77;;;1.00;99.90;;;;;;5026569;28;20083;-82
2022/12/15 11:39:28;;;;;;;23.63;17.73;;;1.00;99.90;;;;;;5042795;28;20169;-82
2022/12/15 11:42:13;;;;;;;20.03;17.20;;;1.00;99.90;;;;;;5019826;28;20040;-83
2022/12/15 11:44:39;;;;;;;19.87;17.13;;;1.10;99.90;;;;;;5045828;28;20812;-73
2022/12/15 11:47:17;;;;;;;20.17;17.93;;;1.10;99.90;;;;;;5043296;28;20291;-73
2022/12/15 11:49:50;;;;;;;21.13;18.30;;;1.10;99.90;;;;;;5045153;28;20044;-74
2022/12/15 11:52:33;;;;;;;24.63;18.20;;;1.10;99.90;;;;;;5043661;28;20113;-73
2022/12/15 11:55:13;;;;;;;21.40;17.07;;;1.20;99.90;;;;;;5044329;28;20056;-72
2022/12/15 11:57:48;;;;;;;21.60;18.05;;;1.20;99.90;;;;;;5028073;28;20352;-73
2022/12/15 12:00:22;;;;;;;19.53;17.40;;;1.20;99.90;;;;;;5021476;28;20470;-73
2022/12/15 12:02:56;;;;;;;19.80;17.40;;;1.20;99.90;;;;;;5008088;28;20048;-73
2022/12/15 12:05:44;;;;;;;20.90;17.30;;;1.30;99.90;;;;;;5023584;28;20824;-73
2022/12/15 12:08:35;;;;;;;22.47;16.30;;;1.30;99.90;;;;;;5023334;28;20041;-73
2022/12/15 12:11:26;;;;;;;22.00;17.13;;;1.30;99.90;;;;;;5026278;28;20050;-73
2022/12/15 12:14:14;;;;;;;;;;;1.40;99.90;;;;;;5020621;28;20490;-73
2022/12/15 12:16:56;;;;;;;19.73;15.37;;;1.40;99.90;;;;;;5027643;28;19948;-73
2022/12/15 12:19:50;;;;;;;20.90;16.47;;;1.50;99.90;;;;;;5020458;28;20043;-73
2022/12/15 12:22:26;;;;;;;17.30;15.30;;;1.60;99.90;;;;;;5041167;28;20613;-73
2022/12/15 12:25:01;;;;;;;21.37;17.17;;;1.60;99.90;;;;;;5044479;28;20036;-73
2022/12/15 12:27:36;;;;;;;20.77;17.13;;;1.60;99.90;;;;;;5043757;28;20052;-73
2022/12/15 12:30:10;;;;;;;19.27;16.20;;;1.60;99.90;;;;;;5040523;28;20545;-82
2022/12/15 12:32:47;;;;;;;20.03;15.83;;;1.60;99.90;;;;;;5024443;28;20036;-81
2022/12/15 12:35:36;;;;;;;19.87;16.60;;;1.70;99.90;;;;;;5027046;28;20309;-82
2022/12/15 12:38:04;;;;;;;20.83;15.67;;;1.70;99.90;;;;;;5025328;28;20047;-81
2022/12/15 12:40:39;;;;;;;18.50;15.57;;;1.80;99.90;;;;;;5034640;28;20051;-81
2022/12/15 12:43:16;;;;;;;19.57;16.10;;;1.80;99.90;;;;;;5025215;28;20468;-82
2022/12/15 12:45:56;;;;;;;19.90;15.53;;;1.80;99.90;;;;;;5021800;28;20037;-81
2022/12/15 12:48:37;;;;;;;19.37;16.40;;;1.90;99.90;;;;;;5042386;28;20084;-81
2022/12/15 12:51:21;;;;;;;19.17;15.13;;;1.90;99.90;;;;;;5027600;28;20060;-81
2022/12/15 12:53:49;;;;;;;19.13;15.93;;;2.00;99.90;;;;;;5036637;28;20404;-81
2022/12/15 12:56:37;;;;;;;19.10;15.10;;;1.90;99.90;;;;;;5044842;28;20032;-82
2022/12/15 12:59:29;;;;;;;16.63;14.83;;;1.90;99.90;;;;;;5041767;28;20090;-81
2022/12/15 13:02:20;;;;;;;17.70;15.43;;;1.90;99.90;;;;;;5011703;28;20194;-81
2022/12/15 13:04:50;;;;;;;17.00;14.67;;;1.90;99.90;;;;;;5041548;28;20033;-80
2022/12/15 13:07:39;;;;;;;17.08;15.32;;;2.00;99.90;;;;;;5017144;28;20485;-80
2022/12/15 13:10:18;;;;;;;18.90;14.93;;;1.90;99.90;;;;;;5037487;28;20053;-81
2022/12/15 13:12:48;;;;;;;19.27;14.90;;;2.00;99.90;;;;;;5025816;28;20340;-80
2022/12/15 13:15:23;;;;;;;17.23;14.57;;;1.90;99.90;;;;;;5041827;28;20106;-80
2022/12/15 13:17:53;;;;;;;18.47;14.43;;;2.00;99.90;;;;;;5041160;28;20162;-80
2022/12/15 13:20:25;;;;;;;18.58;14.82;;;2.00;99.90;;;;;;5026621;28;20647;-80
2022/12/15 13:22:52;;;;;;;17.80;14.60;;;2.00;99.90;;;;;;5026701;28;20321;-80
2022/12/15 13:25:43;;;;;;;17.30;14.63;;;2.10;99.90;;;;;;5031249;28;20720;-80
2022/12/15 13:28:37;;;;;;;19.33;14.33;;;2.10;99.90;;;;;;4997065;28;20051;-81
2022/12/15 13:31:21;;;;;;;21.17;16.40;;;2.10;99.90;;;;;;5046686;28;20380;-80
2022/12/15 13:33:50;;;;;;;20.37;15.47;;;2.00;99.90;;;;;;5030072;28;20062;-80
2022/12/15 13:36:40;;;;;;;17.13;14.87;;;2.10;99.90;;;;;;5023014;28;20120;-80
2022/12/15 13:39:12;;;;;;;;;;;2.10;99.90;;;;;;5029734;28;20041;-80
2022/12/15 13:41:41;;;;;;;19.90;15.20;;;2.20;99.90;;;;;;5042253;28;20265;-80
2022/12/15 13:44:16;;;;;;;19.13;15.50;;;2.10;99.90;;;;;;5038996;28;20055;-80
2022/12/15 13:46:45;;;;;;;16.83;14.67;;;2.20;99.90;;;;;;5045478;28;20559;-80
2022/12/15 13:49:36;;;;;;;18.20;14.17;;;2.20;99.90;;;;;;5045493;28;20040;-80
2022/12/15 13:52:09;;;;;;;;;;;2.20;99.90;;;;;;5044544;28;20561;-80
2022/12/15 13:54:39;;;;;;;18.23;14.93;;;2.20;99.90;;;;;;5043476;28;19920;-80
2022/12/15 13:57:07;;;;;;;17.42;15.23;;;2.10;99.90;;;;;;5030865;28;20048;-79
2022/12/15 13:59:36;;;;;;;17.87;14.70;;;2.10;99.90;;;;;;5040391;28;20388;-80
2022/12/15 14:02:21;;;;;;;16.47;14.70;;;2.10;99.90;;;;;;5021043;28;20425;-79
2022/12/15 14:05:08;;;;;;;20.37;15.43;;;2.10;99.90;;;;;;5027082;28;20063;-80
2022/12/15 14:07:34;;;;;;;16.63;14.80;;;2.10;99.90;;;;;;5030456;28;20044;-80
2022/12/15 14:10:03;;;;;;;19.27;15.50;;;2.10;99.90;;;;;;5041754;28;20049;-80
2022/12/15 14:12:28;;;;;;;22.70;16.63;;;2.10;99.90;;;;;;5027543;28;20707;-80
2022/12/15 14:14:54;;;;;;;18.47;16.00;;;2.10;99.90;;;;;;5008093;28;20044;-79
2022/12/15 14:17:21;;;;;;;22.00;15.80;;;2.10;99.90;;;;;;5029445;28;20452;-80
2022/12/15 14:19:52;;;;;;;19.87;15.73;;;2.10;99.90;;;;;;5046975;28;20048;-81
2022/12/15 14:22:22;;;;;;;20.00;16.33;;;2.10;99.90;;;;;;5017823;28;20167;-80
2022/12/15 14:24:50;;;;;;;19.23;16.27;;;2.10;99.90;;;;;;5032207;28;20052;-80
2022/12/15 14:27:31;;;;;;;19.03;16.83;;;2.10;99.90;;;;;;5046015;28;20032;-80
2022/12/15 14:30:27;;;;;;;21.73;17.53;;;2.10;99.90;;;;;;5041782;28;20509;-80
2022/12/15 14:33:10;;;;;;;19.73;17.60;;;2.00;99.90;;;;;;5029993;28;20090;-81
2022/12/15 14:35:41;;;;;;;20.37;18.20;;;2.00;99.90;;;;;;5042190;28;20052;-81
2022/12/15 14:38:10;;;;;;;;;;;2.00;99.90;;;;;;5023910;28;20064;-80
2022/12/15 14:40:38;;;;;;;18.43;16.43;;;1.90;99.90;;;;;;5040769;28;19920;-80
2022/12/15 14:43:10;;;;;;;20.80;18.60;;;1.90;99.90;;;;;;5011677;28;20139;-81
2022/12/15 14:45:36;;;;;;;22.47;19.20;;;1.90;99.90;;;;;;5029104;28;20052;-81
2022/12/15 14:48:08;;;;;;;22.87;20.33;;;1.80;99.90;;;;;;4998152;28;20048;-80
2022/12/15 14:50:34;;;;;;;24.43;20.00;;;1.80;99.90;;;;;;5042293;28;20054;-80
2022/12/15 14:53:22;;;;;;;23.57;20.83;;;1.80;99.90;;;;;;5015451;28;20348;-80
2022/12/15 14:55:48;;;;;;;23.57;21.07;;;1.70;99.90;;;;;;5047206;28;20495;-80
2022/12/15 14:58:34;;;;;;;21.87;19.53;;;1.70;99.90;;;;;;5042885;28;20117;-81
2022/12/15 15:01:01;;;;;;;22.13;19.73;;;1.70;99.90;;;;;;5045957;28;20043;-80
2022/12/15 15:03:37;;;;;;;20.97;18.87;;;1.60;99.90;;;;;;5027109;28;20575;-80
2022/12/15 15:06:10;;;;;;;22.17;18.90;;;1.60;99.90;;;;;;5026306;28;20058;-80
2022/12/15 15:08:45;;;;;;;23.43;21.07;;;1.50;99.90;;;;;;5036767;28;20041;-80
2022/12/15 15:11:34;;;;;;;24.00;21.53;;;1.60;99.90;;;;;;5025626;28;20407;-80
2022/12/15 15:14:07;;;;;;;23.93;21.33;;;1.50;99.90;;;;;;5042785;28;20063;-80
2022/12/15 15:16:33;;;;;;;24.57;21.87;;;1.50;99.90;;;;;;5022231;28;20663;-80
2022/12/15 15:19:01;;;;;;;25.17;22.47;;;1.40;99.90;;;;;;5043958;28;20075;-80
2022/12/15 15:21:29;;;;;;;27.67;24.73;;;1.40;99.90;;;;;;5011013;28;20487;-81